Kezdőlap
METAR-TAF:

METAR-TAF

Repülőterek :

Lugano, Svájc

földrajzi szélesség: 46-00N, földrajzi hosszúság: 008-58E, magasság: 273 m

Jelenlegi meteorológiai megfigyelések

A jelentés 31 perccel ezelõtt készült, 19:20 UTC
Különbözõ irányokból fújó szél 1 kt
Hőmérséklet 6°C
Páratartalom 75%
Légköri nyomás 1031 hPa
Látótávolság: 8000 m

METAR: LSZA 221920Z AUTO VRB01KT 8000 NCD 06/02 Q1031

Idő: 20:51 (19:51 UTC)

Előrejelzés

A jelentés 5 órával és 26 perccel ezelõtt készült, 14:25 UTC
Az előrejelzés 22-én 15 óra UTC és 22-én 24 óra UTC között érvényes
Dél-délnyugati szél 6 kt
Látótávolság 10 km, vagy több
felhőtlen 1500 m magasságban, és nincs gomolyfelhõ
22-én 15 óra UTC és 22-én 24 óra UTC között ideiglenes
Látótávolság: 9000 m

TAF: LSZA 221425Z 2215/2224 20006KT CAVOK TEMPO 2215/2224 9000 NSC

Meteorológiai megfigyelések és előrejelzések több, mint 4000 repülőtéren (METAR és TAF jelentéseket).

A térképen piros és sárga pontok jelzik az elérhető meteorológiai állomásokat.

Mozgassa az egeret a pont fölött, hogy megjelenjen az állomás neve.

Azután kattintson az időjárási megfigyelések és előrejelzések megtekintéséhez.

A térkép megváltoztatása: kattintson a fekete keresztel jelölt zöld gombra ráközelítéshez, a vonallal jelölt zöld gombra távolításhoz, vagy a zöld nyilakra a szomszédos térképek eléréséhez.


METAR-TAF: